createdAt,value
2022-11-29T00:00:47.151Z,28.93
2022-11-29T00:03:08.142Z,29.90
2022-11-29T00:05:29.522Z,27.13
2022-11-29T00:07:50.908Z,30.17
2022-11-29T00:10:12.507Z,27.73
2022-11-29T00:12:32.475Z,30.23
2022-11-29T00:14:55.037Z,27.90
2022-11-29T00:17:16.343Z,28.93
2022-11-29T00:19:38.007Z,27.57
2022-11-29T00:21:59.301Z,27.63
2022-11-29T00:24:20.633Z,27.23
2022-11-29T00:26:41.952Z,30.03
2022-11-29T00:29:03.175Z,29.13
2022-11-29T00:31:27.469Z,27.10
2022-11-29T00:33:49.158Z,25.77
2022-11-29T00:36:10.570Z,26.30
2022-11-29T00:38:31.902Z,26.10
2022-11-29T00:40:53.322Z,30.40
2022-11-29T00:43:14.621Z,25.77
2022-11-29T00:45:36.013Z,27.50
2022-11-29T00:47:58.582Z,30.03
2022-11-29T00:50:19.963Z,26.80
2022-11-29T00:52:40.995Z,25.67
2022-11-29T00:55:02.298Z,23.63
2022-11-29T00:57:23.784Z,27.73
2022-11-29T00:59:44.719Z,25.83
2022-11-29T01:02:06.039Z,27.83
2022-11-29T01:04:28.654Z,24.03
2022-11-29T01:06:51.436Z,22.70
2022-11-29T01:09:12.453Z,24.90
2022-11-29T01:11:33.905Z,26.93
2022-11-29T01:13:56.077Z,27.37
2022-11-29T01:16:17.809Z,27.03
2022-11-29T01:18:39.204Z,27.00
2022-11-29T01:21:02.674Z,27.93
2022-11-29T01:23:23.976Z,26.83
2022-11-29T01:25:45.414Z,25.23
2022-11-29T01:28:06.685Z,24.63
2022-11-29T01:30:27.959Z,25.97
2022-11-29T01:32:49.286Z,24.70
2022-11-29T01:35:10.480Z,27.37
2022-11-29T01:37:33.134Z,24.07
2022-11-29T01:39:54.041Z,24.00
2022-11-29T01:42:15.591Z,21.93
2022-11-29T01:44:55.255Z,25.77
2022-11-29T01:47:16.817Z,23.93
2022-11-29T01:49:38.996Z,23.83
2022-11-29T01:52:01.845Z,25.37
2022-11-29T01:54:24.329Z,24.13
2022-11-29T01:56:46.378Z,22.00
2022-11-29T01:59:08.938Z,23.37
2022-11-29T02:01:30.283Z,23.20
2022-11-29T02:03:51.467Z,22.13
2022-11-29T02:06:12.714Z,23.83
2022-11-29T02:08:40.360Z,26.27
2022-11-29T02:11:19.525Z,24.23
2022-11-29T02:13:48.734Z,23.57
2022-11-29T02:16:13.927Z,23.73
2022-11-29T02:18:42.261Z,25.83
2022-11-29T02:21:24.339Z,22.17
2022-11-29T02:24:04.276Z,22.73
2022-11-29T02:26:36.014Z,21.57
2022-11-29T02:29:27.886Z,22.87
2022-11-29T02:32:09.136Z,20.40
2022-11-29T02:34:52.066Z,24.60
2022-11-29T02:37:23.639Z,21.90
2022-11-29T02:39:56.863Z,21.83
2022-11-29T02:42:26.528Z,23.07
2022-11-29T02:44:58.216Z,19.80
2022-11-29T02:47:25.907Z,21.97
2022-11-29T02:50:05.231Z,22.07
2022-11-29T02:52:32.755Z,24.07
2022-11-29T02:54:56.249Z,21.07
2022-11-29T02:57:21.881Z,19.17
2022-11-29T02:59:47.863Z,19.43
2022-11-29T03:02:13.984Z,21.77
2022-11-29T03:04:38.997Z,21.43
2022-11-29T03:07:03.303Z,18.30
2022-11-29T03:09:33.221Z,19.57
2022-11-29T03:11:58.003Z,19.03
2022-11-29T03:14:23.758Z,19.33
2022-11-29T03:16:47.198Z,19.57
2022-11-29T03:19:18.606Z,18.80
2022-11-29T03:21:42.463Z,19.40
2022-11-29T03:24:05.829Z,19.60
2022-11-29T03:26:33.070Z,20.90
2022-11-29T03:29:01.226Z,19.20
2022-11-29T03:31:24.791Z,18.40
2022-11-29T03:33:52.194Z,17.20
2022-11-29T03:36:16.123Z,17.70
2022-11-29T03:38:40.717Z,20.07
2022-11-29T03:41:06.027Z,16.90
2022-11-29T03:43:33.420Z,19.40
2022-11-29T03:45:57.921Z,18.37
2022-11-29T03:48:22.018Z,18.47
2022-11-29T03:50:44.580Z,18.60
2022-11-29T03:53:12.519Z,18.83
2022-11-29T03:55:34.835Z,17.27
2022-11-29T03:58:05.631Z,18.10
2022-11-29T04:00:32.876Z,17.97
2022-11-29T04:03:13.007Z,14.40
2022-11-29T04:05:40.553Z,16.37
2022-11-29T04:08:06.448Z,16.57
2022-11-29T04:10:36.665Z,16.37
2022-11-29T04:13:29.143Z,16.73
2022-11-29T04:16:11.668Z,18.13
2022-11-29T04:18:39.236Z,17.40
2022-11-29T04:21:15.195Z,15.60
2022-11-29T04:23:49.671Z,18.30
2022-11-29T04:26:21.295Z,15.20
2022-11-29T04:28:59.003Z,15.70
2022-11-29T04:31:26.790Z,15.40
2022-11-29T04:33:58.194Z,14.60
2022-11-29T04:36:40.276Z,14.20
2022-11-29T04:39:15.782Z,13.47
2022-11-29T04:41:49.670Z,15.03
2022-11-29T04:44:20.657Z,12.87
2022-11-29T04:46:52.858Z,15.50
2022-11-29T04:49:31.713Z,14.03
2022-11-29T04:52:09.205Z,15.03
2022-11-29T04:54:34.146Z,13.83
2022-11-29T04:56:57.946Z,16.70
2022-11-29T04:59:21.795Z,14.83
2022-11-29T05:01:49.488Z,13.97
2022-11-29T05:04:16.316Z,15.27
2022-11-29T05:06:40.905Z,13.87
2022-11-29T05:09:07.421Z,13.60
2022-11-29T05:11:33.675Z,15.13
2022-11-29T05:13:57.613Z,13.43
2022-11-29T05:16:36.552Z,12.03
2022-11-29T05:19:20.176Z,12.57
2022-11-29T05:21:47.477Z,14.37
2022-11-29T05:24:12.882Z,12.27
2022-11-29T05:26:39.230Z,12.47
2022-11-29T05:29:02.942Z,12.20
2022-11-29T05:31:32.594Z,12.67
2022-11-29T05:33:59.730Z,13.60
2022-11-29T05:36:25.587Z,14.47
2022-11-29T05:38:56.505Z,11.83
2022-11-29T05:41:22.219Z,14.53
2022-11-29T05:43:48.233Z,14.00
2022-11-29T05:46:10.210Z,11.93
2022-11-29T05:48:35.798Z,11.67
2022-11-29T05:51:06.203Z,11.37
2022-11-29T05:53:31.081Z,12.80
2022-11-29T05:55:55.896Z,12.43
2022-11-29T05:58:23.434Z,12.27
2022-11-29T06:00:50.974Z,12.20
2022-11-29T06:03:16.918Z,12.10
2022-11-29T06:05:40.441Z,12.63
2022-11-29T06:08:04.530Z,13.17
2022-11-29T06:10:30.070Z,16.50
2022-11-29T06:12:56.961Z,15.33
2022-11-29T06:15:36.416Z,15.23
2022-11-29T06:18:02.879Z,14.77
2022-11-29T06:20:34.355Z,14.93
2022-11-29T06:23:04.018Z,12.80
2022-11-29T06:25:33.134Z,14.50
2022-11-29T06:28:04.646Z,10.87
2022-11-29T06:30:27.968Z,12.63
2022-11-29T06:32:52.801Z,11.70
2022-11-29T06:35:23.518Z,11.77
2022-11-29T06:37:46.118Z,11.30
2022-11-29T06:40:10.845Z,12.90
2022-11-29T06:42:33.189Z,12.20
2022-11-29T06:44:54.985Z,11.23
2022-11-29T06:47:20.231Z,13.20
2022-11-29T06:49:45.419Z,10.97
2022-11-29T06:52:14.485Z,12.63
2022-11-29T06:54:47.209Z,11.77
2022-11-29T06:57:12.396Z,11.67
2022-11-29T06:59:42.722Z,10.73
2022-11-29T07:02:06.125Z,11.37
2022-11-29T07:04:34.781Z,12.03
2022-11-29T07:06:56.129Z,12.90
2022-11-29T07:09:18.387Z,10.03
2022-11-29T07:11:40.043Z,14.43
2022-11-29T07:14:01.541Z,10.17
2022-11-29T07:16:26.957Z,10.67
2022-11-29T07:18:50.917Z,10.23
2022-11-29T07:21:15.792Z,11.30
2022-11-29T07:23:38.234Z,9.83
2022-11-29T07:26:04.438Z,11.87
2022-11-29T07:28:33.127Z,11.60
2022-11-29T07:30:57.346Z,11.20
2022-11-29T07:33:23.449Z,10.97
2022-11-29T07:35:47.544Z,9.53
2022-11-29T07:38:11.153Z,12.67
2022-11-29T07:40:37.537Z,12.30
2022-11-29T07:43:06.456Z,15.37
2022-11-29T07:45:29.168Z,11.03
2022-11-29T07:47:51.496Z,10.80
2022-11-29T07:50:14.122Z,13.03
2022-11-29T07:52:35.358Z,11.60
2022-11-29T07:54:56.518Z,13.10
2022-11-29T07:57:17.875Z,11.37
2022-11-29T07:59:39.229Z,11.00
2022-11-29T08:02:00.612Z,12.13
2022-11-29T08:04:21.873Z,11.40
2022-11-29T08:06:44.470Z,18.77
2022-11-29T08:09:06.841Z,15.80
2022-11-29T08:11:27.935Z,14.03
2022-11-29T08:13:49.222Z,12.23
2022-11-29T08:16:10.716Z,13.97
2022-11-29T08:18:31.739Z,17.17
2022-11-29T08:20:52.805Z,20.40
2022-11-29T08:23:16.575Z,15.27
2022-11-29T08:25:37.599Z,12.00
2022-11-29T08:27:58.875Z,14.83
2022-11-29T08:30:22.200Z,16.27
2022-11-29T08:32:48.460Z,16.83
2022-11-29T08:35:12.003Z,15.67
2022-11-29T08:37:33.094Z,16.90
2022-11-29T08:39:56.132Z,21.33
2022-11-29T08:42:17.011Z,15.07
2022-11-29T08:44:38.349Z,14.40
2022-11-29T08:47:17.176Z,22.13
2022-11-29T08:49:59.090Z,14.23
2022-11-29T08:52:37.628Z,10.30
2022-11-29T08:55:03.264Z,9.57
2022-11-29T08:57:39.834Z,11.07
2022-11-29T09:00:01.754Z,17.30
2022-11-29T09:02:23.262Z,10.83
2022-11-29T09:04:44.738Z,13.73
2022-11-29T09:07:06.404Z,13.57
2022-11-29T09:09:27.641Z,15.60
2022-11-29T09:11:50.487Z,12.70
2022-11-29T09:14:14.984Z,14.70
2022-11-29T09:16:37.419Z,15.57
2022-11-29T09:18:58.599Z,13.30
2022-11-29T09:21:19.952Z,14.17
2022-11-29T09:23:41.771Z,13.37
2022-11-29T09:26:03.084Z,16.37
2022-11-29T09:28:25.482Z,11.80
2022-11-29T09:30:46.813Z,12.13
2022-11-29T09:33:08.107Z,13.50
2022-11-29T09:35:29.392Z,14.37
2022-11-29T09:37:50.778Z,13.80
2022-11-29T09:40:16.840Z,16.63
2022-11-29T09:42:43.101Z,22.13
2022-11-29T09:45:08.579Z,26.23
2022-11-29T09:47:45.641Z,17.23
2022-11-29T09:50:20.789Z,13.53
2022-11-29T09:52:48.427Z,18.27
2022-11-29T09:55:30.155Z,14.37
2022-11-29T09:57:51.562Z,12.93
2022-11-29T10:00:17.544Z,14.17
2022-11-29T10:02:43.789Z,14.57
2022-11-29T10:05:09.639Z,15.53
2022-11-29T10:07:34.083Z,16.80
2022-11-29T10:09:57.413Z,15.30
2022-11-29T10:12:20.755Z,14.97
2022-11-29T10:14:45.274Z,15.70
2022-11-29T10:17:13.270Z,17.10
2022-11-29T10:19:36.237Z,15.93
2022-11-29T10:22:03.450Z,12.80
2022-11-29T10:24:26.177Z,11.60
2022-11-29T10:26:47.559Z,13.60
2022-11-29T10:29:11.021Z,13.77
2022-11-29T10:31:33.839Z,13.10
2022-11-29T10:33:56.929Z,13.77
2022-11-29T10:36:22.158Z,10.83
2022-11-29T10:38:44.055Z,12.93
2022-11-29T10:41:06.713Z,11.07
2022-11-29T10:43:27.811Z,11.13
2022-11-29T10:45:53.425Z,12.23
2022-11-29T10:48:17.377Z,13.33
2022-11-29T10:50:42.675Z,11.03
2022-11-29T10:53:06.045Z,12.70
2022-11-29T10:55:27.274Z,13.20
2022-11-29T10:58:09.645Z,12.87
2022-11-29T11:00:30.671Z,15.07
2022-11-29T11:02:51.964Z,12.47
2022-11-29T11:05:18.546Z,11.13
2022-11-29T11:07:41.780Z,14.07
2022-11-29T11:10:04.246Z,13.43
2022-11-29T11:12:27.305Z,13.13
2022-11-29T11:14:48.857Z,12.60
2022-11-29T11:17:17.214Z,13.43
2022-11-29T11:19:38.246Z,16.60
2022-11-29T11:22:00.417Z,15.23
2022-11-29T11:24:24.691Z,17.73
2022-11-29T11:26:46.446Z,16.30
2022-11-29T11:29:07.789Z,13.33
2022-11-29T11:31:30.461Z,14.23
2022-11-29T11:33:51.922Z,15.63
2022-11-29T11:36:14.324Z,14.47
2022-11-29T11:38:36.221Z,21.40
2022-11-29T11:41:06.288Z,14.33
2022-11-29T11:43:27.245Z,15.17
2022-11-29T11:45:52.529Z,16.13
2022-11-29T11:48:15.126Z,14.50
2022-11-29T11:50:38.540Z,16.37
2022-11-29T11:53:00.983Z,14.63
2022-11-29T11:55:28.793Z,14.77
2022-11-29T11:57:58.351Z,14.50
2022-11-29T12:01:01.801Z,14.83
2022-11-29T12:03:24.338Z,13.73
2022-11-29T12:05:47.202Z,14.33
2022-11-29T12:08:10.789Z,14.40
2022-11-29T12:10:34.748Z,14.37
2022-11-29T12:12:58.214Z,14.60
2022-11-29T12:15:20.937Z,15.20
2022-11-29T12:17:45.167Z,16.00
2022-11-29T12:20:14.017Z,16.67
2022-11-29T12:22:47.887Z,15.83
2022-11-29T12:25:14.054Z,15.77
2022-11-29T12:27:35.440Z,16.13
2022-11-29T12:29:58.006Z,14.83
2022-11-29T12:32:43.414Z,17.57
2022-11-29T12:35:20.849Z,15.93
2022-11-29T12:37:45.068Z,15.33
2022-11-29T12:40:07.205Z,13.70
2022-11-29T12:42:36.218Z,14.90
2022-11-29T12:45:02.195Z,15.03
2022-11-29T12:47:35.820Z,14.30
2022-11-29T12:50:02.174Z,14.70
2022-11-29T12:52:28.086Z,14.23
2022-11-29T12:54:58.082Z,13.70
2022-11-29T12:57:21.751Z,14.77
2022-11-29T12:59:51.195Z,14.43
2022-11-29T13:02:26.151Z,13.37
2022-11-29T13:04:56.512Z,13.73
2022-11-29T13:07:26.718Z,14.67
2022-11-29T13:09:54.099Z,13.07
2022-11-29T13:12:18.722Z,12.40
2022-11-29T13:14:44.280Z,11.60
2022-11-29T13:17:06.776Z,12.80
2022-11-29T13:19:34.384Z,12.33
2022-11-29T13:21:58.615Z,13.60
2022-11-29T13:24:23.555Z,13.67
2022-11-29T13:26:45.708Z,12.73
2022-11-29T13:29:07.562Z,14.33
2022-11-29T13:31:28.865Z,12.97
2022-11-29T13:33:54.337Z,12.10
2022-11-29T13:36:19.504Z,11.57
2022-11-29T13:38:43.684Z,13.10
2022-11-29T13:41:11.319Z,12.77
2022-11-29T13:43:36.992Z,11.60
2022-11-29T13:46:02.555Z,12.40
2022-11-29T13:48:33.929Z,13.20
2022-11-29T13:50:55.970Z,12.60
2022-11-29T13:53:20.139Z,12.23
2022-11-29T13:55:45.174Z,11.33
2022-11-29T13:58:16.638Z,12.50
2022-11-29T14:00:49.774Z,13.73
2022-11-29T14:03:28.862Z,12.40
2022-11-29T14:05:50.559Z,12.33
2022-11-29T14:08:42.440Z,11.17
2022-11-29T14:11:19.552Z,11.63
2022-11-29T14:13:47.586Z,11.60
2022-11-29T14:16:16.173Z,13.20
2022-11-29T14:18:48.819Z,11.60
2022-11-29T14:21:10.478Z,10.70
2022-11-29T14:23:36.450Z,10.67
2022-11-29T14:26:16.399Z,11.13
2022-11-29T14:28:39.749Z,10.53
2022-11-29T14:31:02.412Z,11.77
2022-11-29T14:33:29.882Z,11.57
2022-11-29T14:35:59.063Z,10.37
2022-11-29T14:38:29.223Z,10.23
2022-11-29T14:40:53.579Z,10.40
2022-11-29T14:43:16.973Z,11.27
2022-11-29T14:45:39.241Z,11.23
2022-11-29T14:48:01.617Z,9.47
2022-11-29T14:50:33.563Z,9.30
2022-11-29T14:52:54.813Z,9.70
2022-11-29T14:55:30.048Z,10.00
2022-11-29T14:58:09.051Z,10.97
2022-11-29T15:00:31.570Z,12.93
2022-11-29T15:02:57.033Z,11.97
2022-11-29T15:05:20.112Z,12.40
2022-11-29T15:07:44.271Z,11.53
2022-11-29T15:10:05.979Z,14.00
2022-11-29T15:12:28.410Z,13.03
2022-11-29T15:14:52.787Z,14.37
2022-11-29T15:17:20.743Z,13.50
2022-11-29T15:19:55.027Z,39.60
2022-11-29T15:22:18.106Z,13.60
2022-11-29T15:24:50.978Z,29.83
2022-11-29T15:27:13.699Z,24.87
2022-11-29T15:29:34.750Z,31.97
2022-11-29T15:31:57.511Z,32.20
2022-11-29T15:34:20.682Z,15.67
2022-11-29T15:36:44.998Z,22.90
2022-11-29T15:39:06.431Z,20.53
2022-11-29T15:41:28.490Z,22.27
2022-11-29T15:43:52.455Z,21.43
2022-11-29T15:46:19.964Z,21.73
2022-11-29T15:48:40.812Z,27.03
2022-11-29T15:51:04.275Z,24.23
2022-11-29T15:53:29.599Z,19.43
2022-11-29T15:55:51.485Z,17.93
2022-11-29T15:58:13.931Z,19.00
2022-11-29T16:00:35.278Z,28.23
2022-11-29T16:02:58.777Z,39.70
2022-11-29T16:05:22.297Z,61.07
2022-11-29T16:07:44.182Z,21.00
2022-11-29T16:10:11.301Z,21.00
2022-11-29T16:12:32.929Z,15.00
2022-11-29T16:14:55.813Z,42.27
2022-11-29T16:17:17.687Z,29.23
2022-11-29T16:19:40.001Z,33.87
2022-11-29T16:22:02.809Z,34.87
2022-11-29T16:24:24.117Z,17.03
2022-11-29T16:26:47.263Z,51.40
2022-11-29T16:29:21.115Z,74.50
2022-11-29T16:31:42.184Z,33.53
2022-11-29T16:34:07.623Z,26.77
2022-11-29T16:36:28.692Z,18.27
2022-11-29T16:38:50.290Z,19.33
2022-11-29T16:41:21.543Z,22.87
2022-11-29T16:43:54.004Z,19.90
2022-11-29T16:46:30.249Z,18.93
2022-11-29T16:48:52.011Z,17.30
2022-11-29T16:51:18.169Z,18.47
2022-11-29T16:53:41.432Z,16.90
2022-11-29T16:56:02.677Z,17.17
2022-11-29T16:58:23.690Z,18.77
2022-11-29T17:00:46.429Z,19.30
2022-11-29T17:03:07.655Z,20.97
2022-11-29T17:05:29.138Z,22.30
2022-11-29T17:07:51.392Z,20.80
2022-11-29T17:10:15.578Z,18.63
2022-11-29T17:12:36.515Z,19.73
2022-11-29T17:14:57.794Z,17.83
2022-11-29T17:17:20.483Z,19.70
2022-11-29T17:19:41.498Z,20.13
2022-11-29T17:22:02.664Z,21.87
2022-11-29T17:24:24.357Z,20.67
2022-11-29T17:26:46.128Z,22.53
2022-11-29T17:29:07.553Z,19.20
2022-11-29T17:31:29.635Z,18.53
2022-11-29T17:33:52.447Z,18.87
2022-11-29T17:36:15.393Z,18.33
2022-11-29T17:38:36.692Z,18.97
2022-11-29T17:40:57.829Z,17.43
2022-11-29T17:43:19.225Z,18.57
2022-11-29T17:45:40.906Z,18.60
2022-11-29T17:48:02.044Z,17.87
2022-11-29T17:50:24.541Z,16.90
2022-11-29T17:52:45.585Z,17.47
2022-11-29T17:55:07.362Z,18.93
2022-11-29T17:57:28.647Z,18.33
2022-11-29T17:59:49.935Z,19.33
2022-11-29T18:02:12.876Z,20.93
2022-11-29T18:04:34.139Z,20.00
2022-11-29T18:06:56.700Z,18.87
2022-11-29T18:09:18.684Z,19.50
2022-11-29T18:11:47.984Z,20.77
2022-11-29T18:14:11.291Z,17.70
2022-11-29T18:16:33.810Z,18.50
2022-11-29T18:18:55.307Z,18.17
2022-11-29T18:21:16.628Z,17.70
2022-11-29T18:23:41.974Z,17.07
2022-11-29T18:26:04.875Z,15.83
2022-11-29T18:28:26.081Z,17.03
2022-11-29T18:30:47.335Z,15.97
2022-11-29T18:33:08.605Z,17.17
2022-11-29T18:35:29.817Z,14.47
2022-11-29T18:38:14.072Z,16.27
2022-11-29T18:40:33.664Z,18.33
2022-11-29T18:42:54.905Z,17.10
2022-11-29T18:45:16.352Z,17.17
2022-11-29T18:47:37.467Z,19.70
2022-11-29T18:49:58.798Z,19.23
2022-11-29T18:52:20.037Z,35.37
2022-11-29T18:54:41.367Z,82.40
2022-11-29T18:57:04.132Z,38.73
2022-11-29T18:59:24.987Z,31.13
2022-11-29T19:01:47.641Z,27.87
2022-11-29T19:04:10.189Z,23.17
2022-11-29T19:06:38.881Z,17.77
2022-11-29T19:09:00.459Z,19.57
2022-11-29T19:11:23.262Z,47.50
2022-11-29T19:13:46.474Z,26.07
2022-11-29T19:16:10.481Z,19.83
2022-11-29T19:18:34.070Z,21.17
2022-11-29T19:20:55.756Z,18.17
2022-11-29T19:23:17.049Z,17.83
2022-11-29T19:25:38.300Z,17.17
2022-11-29T19:27:59.630Z,18.13
2022-11-29T19:30:22.468Z,17.60
2022-11-29T19:32:43.791Z,16.63
2022-11-29T19:35:04.982Z,17.63
2022-11-29T19:37:26.047Z,19.77
2022-11-29T19:39:47.475Z,16.87
2022-11-29T19:42:09.070Z,16.77
2022-11-29T19:44:35.893Z,18.50
2022-11-29T19:47:10.992Z,18.60
2022-11-29T19:49:32.380Z,19.50
2022-11-29T19:51:53.622Z,17.07
2022-11-29T19:54:14.985Z,18.33
2022-11-29T19:56:36.677Z,17.43
2022-11-29T19:58:59.598Z,18.50
2022-11-29T20:01:22.381Z,26.33
2022-11-29T20:03:46.028Z,25.07
2022-11-29T20:06:07.072Z,24.07
2022-11-29T20:08:28.050Z,21.33
2022-11-29T20:10:49.467Z,23.87
2022-11-29T20:13:10.687Z,22.57
2022-11-29T20:15:32.112Z,25.43
2022-11-29T20:17:53.862Z,27.13
2022-11-29T20:20:16.809Z,24.37
2022-11-29T20:22:37.705Z,25.03
2022-11-29T20:24:58.930Z,25.33
2022-11-29T20:27:20.163Z,28.00
2022-11-29T20:29:41.386Z,26.17
2022-11-29T20:32:02.586Z,27.40
2022-11-29T20:34:24.007Z,23.70
2022-11-29T20:37:05.706Z,22.93
2022-11-29T20:39:31.703Z,25.43
2022-11-29T20:41:58.908Z,23.97
2022-11-29T20:44:21.391Z,24.60
2022-11-29T20:46:42.827Z,23.27
2022-11-29T20:49:06.791Z,25.60
2022-11-29T20:51:29.763Z,23.87
2022-11-29T20:53:51.060Z,23.03
2022-11-29T20:56:13.693Z,26.13
2022-11-29T20:58:35.355Z,28.13
2022-11-29T21:00:56.802Z,29.13
2022-11-29T21:03:19.031Z,32.13
2022-11-29T21:05:40.370Z,30.77
2022-11-29T21:08:02.540Z,27.97
2022-11-29T21:10:23.875Z,25.43
2022-11-29T21:12:47.025Z,29.60
2022-11-29T21:15:09.428Z,30.17
2022-11-29T21:17:33.679Z,26.37
2022-11-29T21:19:55.483Z,26.87
2022-11-29T21:22:20.848Z,27.50
2022-11-29T21:24:46.974Z,27.13
2022-11-29T21:27:11.786Z,32.60
2022-11-29T21:29:34.736Z,29.20
2022-11-29T21:31:56.050Z,29.00
2022-11-29T21:34:17.183Z,28.50
2022-11-29T21:36:39.119Z,26.57
2022-11-29T21:39:04.901Z,30.37
2022-11-29T21:41:26.651Z,33.60
2022-11-29T21:44:05.977Z,36.43
2022-11-29T21:46:29.512Z,33.90
2022-11-29T21:48:51.892Z,31.83
2022-11-29T21:51:13.051Z,33.67
2022-11-29T21:53:34.457Z,33.23
2022-11-29T21:55:58.861Z,29.23
2022-11-29T21:58:19.677Z,35.97
2022-11-29T22:00:40.935Z,32.67
2022-11-29T22:03:03.583Z,34.10
2022-11-29T22:05:24.946Z,30.70
2022-11-29T22:07:46.325Z,34.17
2022-11-29T22:10:13.160Z,34.50
2022-11-29T22:12:35.353Z,33.90
2022-11-29T22:14:56.687Z,33.60
2022-11-29T22:17:17.928Z,36.37
2022-11-29T22:19:40.871Z,35.33
2022-11-29T22:22:02.886Z,35.77
2022-11-29T22:24:24.730Z,32.23
2022-11-29T22:26:45.848Z,31.97
2022-11-29T22:29:06.856Z,34.10
2022-11-29T22:31:28.245Z,35.73
2022-11-29T22:33:49.678Z,34.60
2022-11-29T22:36:13.762Z,33.73
2022-11-29T22:38:35.062Z,34.27
2022-11-29T22:40:59.764Z,34.37
2022-11-29T22:43:20.920Z,36.97
2022-11-29T22:45:42.083Z,34.33
2022-11-29T22:48:03.237Z,37.57
2022-11-29T22:50:25.546Z,36.77
2022-11-29T22:52:48.039Z,40.40
2022-11-29T22:55:09.715Z,41.13
2022-11-29T22:57:30.942Z,37.37
2022-11-29T22:59:52.198Z,38.67
2022-11-29T23:02:13.654Z,44.40
2022-11-29T23:04:35.318Z,37.87
2022-11-29T23:06:56.455Z,38.90
2022-11-29T23:09:21.635Z,36.40
2022-11-29T23:11:43.028Z,37.60
2022-11-29T23:14:04.213Z,39.40
2022-11-29T23:16:26.333Z,37.53
2022-11-29T23:18:47.652Z,36.87
2022-11-29T23:21:09.984Z,38.80
2022-11-29T23:23:31.514Z,39.53
2022-11-29T23:25:53.827Z,36.60
2022-11-29T23:28:15.225Z,35.60
2022-11-29T23:30:36.531Z,36.27
2022-11-29T23:32:57.931Z,34.83
2022-11-29T23:35:19.327Z,34.90
2022-11-29T23:37:40.627Z,33.30
2022-11-29T23:40:01.821Z,35.67
2022-11-29T23:42:25.580Z,40.17
2022-11-29T23:44:46.849Z,35.93
2022-11-29T23:47:08.310Z,38.90
2022-11-29T23:49:29.473Z,34.23
2022-11-29T23:51:50.855Z,31.10
2022-11-29T23:54:11.954Z,32.63
2022-11-29T23:56:35.468Z,33.03
2022-11-29T23:58:58.359Z,31.27
